Terminal Aerodrome Forecast
Issued by NWS Sioux Falls, SD

Home | Current Version | Previous Version | Text Only | Print | Product List | Glossary On
Versions: 1 2 3 4 5 6 7 8 9 10 11 12 13
000
FTUS43 KFSD 151720
TAFHON
TAF
KHON 151720Z 1518/1618 16022G30KT P6SM SCT250
     FM152000 14018G25KT P6SM BKN050
     FM160100 14012KT P6SM OVC040
     FM160900 14005KT P6SM OVC025=

USA.gov is the U.S. government's official web portal to all federal, state and local government web resources and services.